Time;durP1;ratioP1;P1;durP2;ratioP2;P2;SDS_P1;SDS_P2;PMS_P1;PMS_P2;Temp;Humidity;BMP_temperature;BMP_pressure;BME280_temperature;BME280_humidity;BME280_pressure;Samples;Min_cycle;Max_cycle;Signal;HPM_P1;HPM_P2
2020/12/13 00:02:22;;;;;;;1.87;1.77;;;;;;;2.65;92.33;94600.31;6030330;23;20207;-82
2020/12/13 00:04:50;;;;;;;2.17;2.07;;;;;;;2.60;92.84;94597.38;6029335;23;20199;-82
2020/12/13 00:07:17;;;;;;;1.57;1.43;;;;;;;2.68;93.08;94605.22;6030254;23;20209;-81
2020/12/13 00:09:44;;;;;;;1.83;1.73;;;;;;;2.71;92.66;94607.47;6023551;23;20210;-82
2020/12/13 00:12:11;;;;;;;1.40;1.40;;;;;;;2.75;92.72;94606.19;6031661;23;20631;-83
2020/12/13 00:14:39;;;;;;;1.20;1.17;;;;;;;2.65;92.66;94608.97;6033691;23;20614;-82
2020/12/13 00:17:06;;;;;;;1.60;1.50;;;;;;;2.66;93.23;94613.19;6033217;23;20199;-82
2020/12/13 00:19:33;;;;;;;1.23;1.13;;;;;;;2.71;92.67;94612.69;6030296;23;20821;-82
2020/12/13 00:22:00;;;;;;;1.00;1.00;;;;;;;2.84;92.87;94615.66;6030290;23;20211;-82
2020/12/13 00:24:28;;;;;;;1.23;1.07;;;;;;;2.80;92.72;94620.34;6030623;23;20199;-81
2020/12/13 00:26:55;;;;;;;1.37;1.27;;;;;;;2.77;92.55;94614.66;6032324;23;20206;-82
2020/12/13 00:29:22;;;;;;;1.87;1.77;;;;;;;2.65;92.60;94615.94;6032818;23;20223;-82
2020/12/13 00:31:51;;;;;;;1.40;1.30;;;;;;;2.62;92.95;94626.69;6029763;23;20278;-82
2020/12/13 00:34:18;;;;;;;1.53;1.43;;;;;;;2.84;92.95;94631.28;6031312;23;20203;-82
2020/12/13 00:36:49;;;;;;;1.43;1.33;;;;;;;2.75;92.36;94629.66;6032840;23;20211;-82
2020/12/13 00:39:16;;;;;;;1.40;1.30;;;;;;;2.72;93.05;94630.75;6030901;23;20215;-81
2020/12/13 00:41:49;;;;;;;0.80;0.80;;;;;;;2.67;92.81;94635.66;6031158;23;20718;-81
2020/12/13 00:44:16;;;;;;;1.67;1.57;;;;;;;2.67;93.25;94629.63;6031443;23;20207;-81
2020/12/13 00:46:43;;;;;;;1.47;1.37;;;;;;;2.65;93.32;94636.75;6030172;23;20222;-81
2020/12/13 00:49:11;;;;;;;1.47;1.37;;;;;;;2.70;93.71;94639.72;6030511;23;20278;-81
2020/12/13 00:51:38;;;;;;;0.80;0.80;;;;;;;2.65;93.35;94641.97;6029940;23;20813;-82
2020/12/13 00:54:06;;;;;;;1.33;1.23;;;;;;;2.78;93.31;94643.16;6029799;23;20214;-81
2020/12/13 00:56:33;;;;;;;2.83;1.00;;;;;;;2.88;93.21;94648.19;6030749;23;20278;-82
2020/12/13 00:59:00;;;;;;;1.53;1.43;;;;;;;2.83;93.03;94650.47;6032303;23;20203;-82
2020/12/13 01:01:27;;;;;;;1.33;0.90;;;;;;;2.88;92.34;94653.41;6031861;23;20210;-83
2020/12/13 01:03:55;;;;;;;0.90;0.90;;;;;;;3.09;92.26;94660.75;6030817;23;20219;-82
2020/12/13 01:06:23;;;;;;;1.23;0.77;;;;;;;2.91;92.54;94663.50;6033141;23;20207;-83
2020/12/13 01:08:51;;;;;;;1.23;1.13;;;;;;;2.83;93.02;94658.28;6030761;23;20203;-82
2020/12/13 01:11:23;;;;;;;0.73;0.73;;;;;;;2.84;93.39;94660.75;6030935;23;20210;-83
2020/12/13 01:13:51;;;;;;;0.77;0.77;;;;;;;2.82;93.43;94662.69;6032803;23;20274;-82
2020/12/13 01:16:20;;;;;;;0.90;0.87;;;;;;;2.87;93.61;94667.41;6033671;23;20693;-84
2020/12/13 01:18:48;;;;;;;1.03;1.00;;;;;;;3.11;92.79;94675.28;6032168;23;20649;-83
2020/12/13 01:21:16;;;;;;;1.07;0.83;;;;;;;3.07;92.84;94673.94;6029097;23;20206;-84
2020/12/13 01:23:44;;;;;;;1.00;0.53;;;;;;;3.13;92.65;94680.31;6034311;23;20222;-83
2020/12/13 01:26:12;;;;;;;0.83;0.83;;;;;;;2.96;92.89;94684.69;6034435;23;20212;-84
2020/12/13 01:28:40;;;;;;;1.83;1.73;;;;;;;2.86;92.78;94673.63;6034564;23;20200;-83
2020/12/13 01:31:07;;;;;;;1.87;1.77;;;;;;;2.85;93.34;94680.63;6031511;23;20210;-81
2020/12/13 01:33:35;;;;;;;1.53;1.43;;;;;;;2.95;93.21;94685.69;6030095;23;20207;-80
2020/12/13 01:36:01;;;;;;;1.10;1.00;;;;;;;2.91;93.14;94683.53;6030095;23;20218;-80
2020/12/13 01:38:28;;;;;;;0.70;0.70;;;;;;;3.03;93.56;94684.88;6032397;23;20578;-79
2020/12/13 01:40:57;;;;;;;1.40;1.30;;;;;;;3.12;93.04;94692.53;6030426;23;20207;-80
2020/12/13 01:43:25;;;;;;;1.33;1.23;;;;;;;3.05;93.17;94694.16;6029960;23;20218;-79
2020/12/13 01:45:53;;;;;;;0.70;0.70;;;;;;;3.22;92.50;94694.97;6031637;23;20747;-79
2020/12/13 01:48:21;;;;;;;0.80;0.80;;;;;;;3.18;92.33;94695.47;6030459;23;20254;-79
2020/12/13 01:50:55;;;;;;;0.80;0.80;;;;;;;3.04;93.07;94704.75;6030375;23;20201;-80
2020/12/13 01:53:25;;;;;;;0.67;0.67;;;;;;;3.10;92.78;94699.69;6032181;23;20194;-80
2020/12/13 01:56:01;;;;;;;0.80;0.80;;;;;;;3.11;92.91;94703.13;6029545;23;20206;-80
2020/12/13 01:58:32;;;;;;;1.07;1.07;;;;;;;3.09;93.08;94698.06;6030977;23;20279;-80
2020/12/13 02:01:01;;;;;;;0.77;0.77;;;;;;;3.09;93.67;94703.25;6031632;23;20849;-80
2020/12/13 02:03:37;;;;;;;0.97;0.97;;;;;;;3.06;93.94;94705.38;6029646;23;20209;-80
2020/12/13 02:06:09;;;;;;;0.93;0.93;;;;;;;3.10;93.87;94704.09;6030311;23;20211;-80
2020/12/13 02:08:39;;;;;;;1.10;1.10;;;;;;;3.19;93.36;94710.13;6031392;23;20222;-80
2020/12/13 02:11:08;;;;;;;0.90;0.90;;;;;;;3.35;93.17;94704.91;6029488;23;20572;-80
2020/12/13 02:13:35;;;;;;;1.33;1.23;;;;;;;3.32;92.52;94715.69;6029824;23;20758;-79
2020/12/13 02:16:02;;;;;;;0.77;0.77;;;;;;;3.39;92.75;94717.47;6029486;23;20269;-80
2020/12/13 02:18:29;;;;;;;2.07;1.97;;;;;;;3.43;92.30;94710.13;6031195;23;20266;-80
2020/12/13 02:20:57;;;;;;;0.70;0.70;;;;;;;3.37;92.12;94710.78;6029739;23;20202;-79
2020/12/13 02:23:25;;;;;;;1.70;1.63;;;;;;;3.44;92.38;94719.59;6028141;23;20210;-79
2020/12/13 02:25:52;;;;;;;1.43;1.33;;;;;;;3.31;92.00;94720.09;6031589;23;20259;-79
2020/12/13 02:28:19;;;;;;;1.43;1.33;;;;;;;3.48;92.34;94714.88;6029118;23;20791;-80
2020/12/13 02:30:47;;;;;;;1.43;1.33;;;;;;;3.48;91.81;94723.50;6028434;23;20199;-71
2020/12/13 02:33:13;;;;;;;2.30;2.20;;;;;;;3.58;92.17;94723.34;6029162;23;20271;-72
2020/12/13 02:35:40;;;;;;;2.80;2.70;;;;;;;3.54;91.87;94722.84;6030036;23;20203;-72
2020/12/13 02:38:07;;;;;;;2.23;2.13;;;;;;;3.61;91.98;94718.59;6028953;23;20211;-72
2020/12/13 02:40:36;;;;;;;2.57;2.37;;;;;;;3.57;92.19;94729.53;6029931;23;20262;-71
2020/12/13 02:43:03;;;;;;;2.43;2.23;;;;;;;3.62;91.54;94730.66;6030458;23;20207;-72
2020/12/13 02:45:30;;;;;;;1.87;1.77;;;;;;;3.60;91.42;94721.38;6026889;23;20274;-71
2020/12/13 02:47:57;;;;;;;2.50;2.30;;;;;;;3.60;91.59;94732.63;6026721;23;20399;-72
2020/12/13 02:50:25;;;;;;;1.97;1.87;;;;;;;3.68;91.24;94734.41;6027317;23;20442;-72
2020/12/13 02:52:52;;;;;;;2.50;2.40;;;;;;;3.66;91.68;94737.19;6029666;23;20203;-72
2020/12/13 02:55:19;;;;;;;2.07;1.97;;;;;;;3.65;91.59;94738.16;6029421;23;20227;-72
2020/12/13 02:57:47;;;;;;;2.10;2.00;;;;;;;3.70;91.76;94746.31;6029788;23;20203;-72
2020/12/13 03:00:14;;;;;;;1.80;1.70;;;;;;;3.69;91.70;94741.28;6030256;23;20211;-73
2020/12/13 03:02:40;;;;;;;1.50;1.40;;;;;;;3.72;91.55;94744.34;6029139;23;20215;-72
2020/12/13 03:05:07;;;;;;;2.90;2.70;;;;;;;3.68;91.52;94750.06;6028571;23;20218;-71
2020/12/13 03:07:34;;;;;;;2.90;2.70;;;;;;;3.71;91.93;94755.78;6027684;23;20719;-73
2020/12/13 03:10:01;;;;;;;2.70;2.53;;;;;;;3.70;91.73;94754.13;6027993;23;20281;-72
2020/12/13 03:12:28;;;;;;;4.57;4.27;;;;;;;3.68;91.70;94750.88;6029718;23;20207;-73
2020/12/13 03:14:56;;;;;;;2.80;2.60;;;;;;;3.75;91.50;94760.66;6029663;23;20202;-72
2020/12/13 03:17:23;;;;;;;3.17;2.93;;;;;;;3.68;91.83;94756.09;6029807;23;20314;-72
2020/12/13 03:19:52;;;;;;;3.73;3.53;;;;;;;3.74;91.50;94765.06;6029514;23;20202;-72
2020/12/13 03:22:19;;;;;;;2.87;2.67;;;;;;;3.72;91.62;94764.41;6027741;23;20593;-73
2020/12/13 03:24:46;;;;;;;2.50;2.40;;;;;;;3.80;91.72;94766.22;6029095;23;20207;-72
2020/12/13 03:27:13;;;;;;;2.60;2.40;;;;;;;3.71;91.72;94755.78;6028933;23;20267;-72
2020/12/13 03:29:40;;;;;;;3.67;3.43;;;;;;;3.78;91.55;94760.34;6029805;23;20212;-72
2020/12/13 03:32:08;;;;;;;3.77;3.47;;;;;;;3.76;91.87;94763.13;6027605;23;20207;-72
2020/12/13 03:34:35;;;;;;;3.17;2.97;;;;;;;3.79;91.91;94764.59;6028107;23;20207;-72
2020/12/13 03:37:02;;;;;;;2.67;2.47;;;;;;;3.66;92.18;94762.47;6028126;23;20211;-72
2020/12/13 03:39:29;;;;;;;4.00;3.70;;;;;;;3.83;92.23;94771.09;6029501;23;20250;-72
2020/12/13 03:41:56;;;;;;;4.47;4.07;;;;;;;3.68;92.47;94769.16;6028115;23;20207;-73
2020/12/13 03:44:23;;;;;;;4.73;4.33;;;;;;;3.85;92.17;94775.19;6027774;23;20207;-72
2020/12/13 03:46:50;;;;;;;4.23;3.93;;;;;;;3.81;91.71;94776.47;6029466;23;20211;-72
2020/12/13 03:49:18;;;;;;;4.87;4.47;;;;;;;3.88;92.00;94769.63;6030984;23;20210;-72
2020/12/13 03:51:46;;;;;;;5.13;4.73;;;;;;;3.82;91.88;94777.28;6031518;23;20227;-72
2020/12/13 03:54:12;;;;;;;4.00;3.67;;;;;;;3.87;92.08;94775.81;6029327;23;20693;-72
2020/12/13 03:56:39;;;;;;;4.57;4.17;;;;;;;3.92;91.79;94778.75;6030828;23;20218;-72
2020/12/13 03:59:06;;;;;;;4.73;4.43;;;;;;;3.91;91.60;94791.97;6031697;23;20210;-73
2020/12/13 04:01:33;;;;;;;4.00;3.70;;;;;;;3.95;91.97;94788.06;6028910;23;20789;-72
2020/12/13 04:04:00;;;;;;;4.77;4.47;;;;;;;3.95;92.03;94798.50;6031044;23;20262;-72
2020/12/13 04:06:27;;;;;;;5.27;4.87;;;;;;;3.90;91.50;94791.16;6037762;23;20210;-73
2020/12/13 04:08:54;;;;;;;6.00;5.40;;;;;;;3.92;91.71;94796.19;6029946;23;20470;-72
2020/12/13 04:11:21;;;;;;;5.83;5.23;;;;;;;3.89;91.52;94799.16;6031350;23;20282;-72
2020/12/13 04:13:49;;;;;;;5.30;4.93;;;;;;;3.89;92.03;94805.19;6031839;23;20542;-73
2020/12/13 04:16:16;;;;;;;5.20;4.80;;;;;;;3.97;91.95;94812.19;6029805;23;20211;-72
2020/12/13 04:18:43;;;;;;;4.63;4.33;;;;;;;3.92;91.90;94804.84;6030881;23;20677;-72
2020/12/13 04:21:09;;;;;;;4.27;3.93;;;;;;;3.92;92.25;94804.84;6030484;23;20207;-73
2020/12/13 04:23:37;;;;;;;5.40;4.70;;;;;;;3.97;91.77;94813.00;6028931;23;20263;-73
2020/12/13 04:26:04;;;;;;;5.17;4.77;;;;;;;4.02;91.65;94816.91;6030877;23;20283;-74
2020/12/13 04:28:31;;;;;;;6.30;5.80;;;;;;;3.97;91.90;94825.25;6030355;23;20464;-73
2020/12/13 04:30:58;;;;;;;5.90;5.33;;;;;;;3.95;91.89;94824.59;6029373;23;20275;-72
2020/12/13 04:33:25;;;;;;;5.23;4.83;;;;;;;3.91;92.05;94818.06;6030947;23;20209;-72
2020/12/13 04:35:52;;;;;;;4.90;4.37;;;;;;;3.94;92.14;94818.56;6028197;23;20199;-71
2020/12/13 04:38:19;;;;;;;5.57;5.07;;;;;;;3.95;91.91;94824.59;6029812;23;20207;-72
2020/12/13 04:40:48;;;;;;;4.33;4.03;;;;;;;3.95;92.02;94819.38;6030388;23;20207;-73
2020/12/13 04:43:15;;;;;;;5.17;4.70;;;;;;;3.91;91.95;94828.50;6030606;23;20275;-72
2020/12/13 04:45:42;;;;;;;4.33;4.03;;;;;;;3.92;92.17;94835.34;6029363;23;20217;-72
2020/12/13 04:48:10;;;;;;;4.03;3.73;;;;;;;3.91;92.19;94838.94;6030660;23;20207;-71
2020/12/13 04:50:38;;;;;;;4.70;4.40;;;;;;;3.97;91.90;94840.91;6030891;23;20717;-73
2020/12/13 04:53:07;;;;;;;6.60;3.53;;;;;;;3.90;92.20;94843.34;6030631;23;20247;-73
2020/12/13 04:55:42;;;;;;;3.77;3.47;;;;;;;3.99;91.73;94846.78;6029020;23;20823;-72
2020/12/13 04:58:13;;;;;;;4.20;3.90;;;;;;;3.89;92.10;94848.75;6030537;23;20609;-72
2020/12/13 05:00:43;;;;;;;3.77;3.47;;;;;;;3.97;92.24;94865.22;6030016;23;20227;-73
2020/12/13 05:03:12;;;;;;;3.43;3.13;;;;;;;3.91;91.90;94855.41;6028478;23;20207;-72
2020/12/13 05:05:39;;;;;;;6.07;5.20;;;;;;;3.92;92.17;94866.66;6028864;23;20207;-73
2020/12/13 05:08:06;;;;;;;5.13;4.63;;;;;;;3.84;92.20;94864.06;6030440;23;20258;-72
2020/12/13 05:10:38;;;;;;;3.53;3.33;;;;;;;3.87;92.66;94858.53;6030600;23;20418;-72
2020/12/13 05:13:05;;;;;;;4.23;3.90;;;;;;;3.87;92.09;94866.38;6028417;23;20207;-73
2020/12/13 05:15:34;;;;;;;4.63;4.33;;;;;;;3.94;91.92;94867.34;6030863;23;20203;-72
2020/12/13 05:18:02;;;;;;;3.93;3.63;;;;;;;4.03;92.12;94876.00;6030723;23;20279;-73
2020/12/13 05:20:29;;;;;;;3.83;3.53;;;;;;;4.01;91.73;94870.91;6028285;23;20258;-72
2020/12/13 05:22:57;;;;;;;5.47;4.20;;;;;;;4.05;91.89;94877.47;6028259;23;20268;-73
2020/12/13 05:25:32;;;;;;;4.43;4.13;;;;;;;4.04;91.95;94877.63;6029359;23;20214;-73
2020/12/13 05:28:01;;;;;;;4.53;4.13;;;;;;;3.95;91.97;94879.41;6028290;23;20215;-73
2020/12/13 05:30:33;;;;;;;4.73;4.43;;;;;;;3.86;92.03;94881.22;6028591;23;20203;-72
2020/12/13 05:33:03;;;;;;;4.90;3.57;;;;;;;3.99;92.39;94891.16;6030478;23;20208;-72
2020/12/13 05:35:30;;;;;;;4.43;4.13;;;;;;;3.95;92.13;94893.28;6030995;23;20464;-72
2020/12/13 05:37:57;;;;;;;4.53;4.23;;;;;;;3.99;92.33;94899.81;6029348;23;20207;-73
2020/12/13 05:40:24;;;;;;;4.57;4.27;;;;;;;4.01;92.29;94904.84;6029064;23;20271;-73
2020/12/13 05:42:59;;;;;;;4.30;3.97;;;;;;;3.99;91.73;94901.59;6030576;23;20274;-72
2020/12/13 05:45:36;;;;;;;5.63;5.23;;;;;;;4.00;91.91;94908.44;6030694;23;20222;-73
2020/12/13 05:48:23;;;;;;;5.63;5.13;;;;;;;3.98;92.07;94913.03;6030307;23;20207;-73
2020/12/13 05:53:33;;;;;;;5.10;4.70;;;;;;;3.94;92.50;94914.34;6026708;23;20203;-72
2020/12/13 05:56:20;;;;;;;7.13;6.43;;;;;;;3.94;92.50;94916.94;6028821;23;20218;-72
2020/12/13 05:58:49;;;;;;;6.17;5.67;;;;;;;3.95;92.25;94918.56;6031151;23;20274;-73
2020/12/13 06:01:21;;;;;;;6.20;5.70;;;;;;;4.00;92.52;94921.50;6030266;23;20597;-72
2020/12/13 06:03:52;;;;;;;6.03;5.53;;;;;;;3.86;92.68;94929.97;6028611;23;20233;-72
2020/12/13 06:06:22;;;;;;;7.27;6.67;;;;;;;3.78;93.21;94928.16;6030550;23;20266;-72
2020/12/13 06:09:04;;;;;;;7.70;6.97;;;;;;;3.85;93.22;94925.75;6031033;23;20209;-72
2020/12/13 06:11:37;;;;;;;6.43;6.00;;;;;;;3.93;92.92;94925.72;6026619;23;20679;-73
2020/12/13 06:14:25;;;;;;;6.03;5.50;;;;;;;4.02;92.77;94923.94;6026193;23;20206;-72
2020/12/13 06:16:55;;;;;;;7.10;6.43;;;;;;;4.00;92.81;94929.31;6030205;23;20766;-72
2020/12/13 06:19:25;;;;;;;5.73;5.23;;;;;;;3.86;92.93;94935.19;6027579;23;20212;-73
2020/12/13 06:21:56;;;;;;;6.57;6.03;;;;;;;3.98;92.51;94933.91;6029794;23;20715;-72
2020/12/13 06:24:23;;;;;;;6.10;5.60;;;;;;;3.98;92.69;94945.16;6029510;23;20216;-72
2020/12/13 06:26:50;;;;;;;6.27;5.80;;;;;;;3.98;92.66;94945.16;6029255;23;20369;-73
2020/12/13 06:29:20;;;;;;;5.80;5.30;;;;;;;3.98;92.57;94950.38;6029525;23;20279;-72
2020/12/13 06:31:48;;;;;;;6.13;5.73;;;;;;;3.94;92.70;94940.44;6027554;23;20286;-71
2020/12/13 06:34:15;;;;;;;7.17;6.67;;;;;;;4.02;92.84;94947.44;6028177;23;20199;-74
2020/12/13 06:36:44;;;;;;;6.33;5.83;;;;;;;4.06;92.50;94952.19;6028361;23;20206;-73
2020/12/13 06:39:14;;;;;;;6.90;6.20;;;;;;;4.00;92.90;94953.63;6029488;23;20207;-73
2020/12/13 06:41:43;;;;;;;5.80;5.40;;;;;;;4.01;93.05;94959.69;6029383;23;20199;-73
2020/12/13 06:44:11;;;;;;;4.90;4.47;;;;;;;4.02;93.02;94965.72;6029524;23;20555;-72
2020/12/13 06:46:40;;;;;;;4.77;4.47;;;;;;;4.02;93.06;94969.13;6029541;23;20228;-73
2020/12/13 06:49:08;;;;;;;4.23;3.93;;;;;;;3.93;93.26;94972.72;6028917;23;20211;-73
2020/12/13 06:51:38;;;;;;;5.40;5.07;;;;;;;3.99;93.12;94972.06;6027158;23;20505;-72
2020/12/13 06:54:07;;;;;;;4.67;4.37;;;;;;;3.95;93.76;94970.78;6029049;23;20269;-73
2020/12/13 06:56:34;;;;;;;4.13;3.73;;;;;;;3.97;93.58;94974.84;6029275;23;20479;-73
2020/12/13 06:59:03;;;;;;;5.23;4.90;;;;;;;3.85;94.23;94972.72;6029595;23;20585;-73
2020/12/13 07:01:32;;;;;;;4.43;4.03;;;;;;;3.90;93.88;94984.28;6029690;23;20199;-73
2020/12/13 07:04:24;;;;;;;4.77;4.43;;;;;;;3.77;93.75;94978.72;6027839;23;20218;-73
2020/12/13 07:06:56;;;;;;;4.20;3.93;;;;;;;3.82;94.19;94988.66;6029195;23;20546;-73
2020/12/13 07:09:25;;;;;;;4.73;4.43;;;;;;;3.94;93.52;94996.06;6029396;23;20262;-73
2020/12/13 07:11:53;;;;;;;4.73;4.43;;;;;;;4.01;93.36;95001.44;6028595;23;20203;-73
2020/12/13 07:14:23;;;;;;;5.47;5.13;;;;;;;3.93;93.48;94996.19;6030012;23;21688;-73
2020/12/13 07:16:59;;;;;;;4.60;4.20;;;;;;;3.87;93.52;95005.50;6029410;23;20271;-72
2020/12/13 07:19:29;;;;;;;4.73;3.90;;;;;;;4.01;93.07;95004.06;6029439;23;20701;-74
2020/12/13 07:22:00;;;;;;;4.43;4.13;;;;;;;3.82;92.94;95006.94;6029341;23;20234;-72
2020/12/13 07:24:28;;;;;;;4.50;4.20;;;;;;;3.82;93.32;95006.94;6027041;23;20262;-72
2020/12/13 07:26:55;;;;;;;3.83;3.63;;;;;;;3.77;93.58;95011.84;6051360;23;20215;-72
2020/12/13 07:29:22;;;;;;;3.53;3.33;;;;;;;3.98;93.17;95022.66;6028697;23;20214;-71
2020/12/13 07:31:51;;;;;;;4.43;4.13;;;;;;;3.99;92.92;95019.06;6028839;23;20236;-73
2020/12/13 07:34:18;;;;;;;4.17;3.93;;;;;;;4.02;92.33;95029.19;6028259;23;20210;-72
2020/12/13 07:36:45;;;;;;;4.60;4.30;;;;;;;4.00;92.60;95028.53;6028129;23;20570;-72
2020/12/13 07:39:13;;;;;;;4.93;4.60;;;;;;;3.92;92.52;95028.50;6029969;23;20203;-72
2020/12/13 07:41:42;;;;;;;3.27;3.07;;;;;;;4.02;92.32;95036.19;6029142;23;20199;-72
2020/12/13 07:44:11;;;;;;;3.77;3.57;;;;;;;3.95;92.20;95033.41;6027999;23;20226;-73
2020/12/13 07:46:39;;;;;;;3.70;3.40;;;;;;;3.97;92.05;95036.69;6029162;23;20221;-73
2020/12/13 07:49:12;;;;;;;4.27;4.07;;;;;;;4.03;92.15;95037.84;6029412;23;20199;-73
2020/12/13 07:51:40;;;;;;;3.43;3.23;;;;;;;3.97;91.77;95041.91;6029201;23;20234;-73
2020/12/13 07:54:12;;;;;;;4.57;4.27;;;;;;;3.93;91.79;95044.03;6029355;23;20200;-73
2020/12/13 07:56:39;;;;;;;3.63;3.43;;;;;;;3.99;91.79;95055.63;6026638;23;20266;-72
2020/12/13 07:59:12;;;;;;;3.03;2.83;;;;;;;3.96;91.81;95055.94;6029807;23;20218;-72
2020/12/13 08:01:39;;;;;;;3.70;3.50;;;;;;;3.99;92.05;95050.41;6030359;23;20254;-72
2020/12/13 08:04:07;;;;;;;4.30;4.00;;;;;;;3.98;91.91;95060.00;6028851;23;20221;-72
2020/12/13 08:06:34;;;;;;;4.13;3.90;;;;;;;4.05;91.88;95065.44;6029574;23;20203;-73
2020/12/13 08:09:07;;;;;;;4.47;3.47;;;;;;;4.07;91.86;95067.88;6028234;23;20199;-72
2020/12/13 08:11:35;;;;;;;2.90;2.70;;;;;;;4.04;91.79;95061.19;6029155;23;20203;-72
2020/12/13 08:14:04;;;;;;;3.50;3.30;;;;;;;3.98;92.07;95065.25;6028592;23;20206;-73
2020/12/13 08:16:33;;;;;;;3.03;2.83;;;;;;;3.98;91.79;95069.66;6029278;23;20214;-72
2020/12/13 08:19:06;;;;;;;2.93;2.73;;;;;;;3.98;92.11;95075.69;6029368;23;20212;-73
2020/12/13 08:21:51;;;;;;;3.33;2.97;;;;;;;4.01;91.95;95079.75;6028537;23;20541;-73
2020/12/13 08:24:19;;;;;;;2.83;2.70;;;;;;;4.06;92.14;95080.13;6028376;23;20755;-72
2020/12/13 08:26:49;;;;;;;2.57;2.37;;;;;;;4.07;92.04;95086.97;6026295;23;20212;-73
2020/12/13 08:29:16;;;;;;;3.23;3.03;;;;;;;4.11;92.21;95085.66;6026855;23;20211;-73
2020/12/13 08:31:45;;;;;;;2.73;2.57;;;;;;;4.13;91.95;95088.97;6026341;23;20546;-72
2020/12/13 08:34:12;;;;;;;3.63;3.43;;;;;;;4.07;91.96;95094.81;6028813;23;20241;-72
2020/12/13 08:36:39;;;;;;;2.97;2.87;;;;;;;4.03;91.76;95098.72;6027799;23;20650;-73
2020/12/13 08:39:08;;;;;;;2.60;2.50;;;;;;;4.06;91.68;95103.63;6031195;23;20210;-73
2020/12/13 08:41:36;;;;;;;2.30;2.20;;;;;;;4.00;92.18;95110.28;6031186;23;20212;-72
2020/12/13 08:44:03;;;;;;;2.50;2.30;;;;;;;4.08;92.21;95104.28;6030728;23;20280;-72
2020/12/13 08:46:41;;;;;;;2.83;2.63;;;;;;;3.97;92.13;95110.59;6031140;23;20212;-73
2020/12/13 08:49:10;;;;;;;2.97;2.80;;;;;;;3.99;92.47;95105.22;6030738;23;20259;-73
2020/12/13 08:51:37;;;;;;;2.23;2.13;;;;;;;4.03;92.12;95114.38;6030684;23;20203;-73
2020/12/13 08:54:05;;;;;;;2.37;2.27;;;;;;;4.11;92.11;95111.78;6029069;23;20214;-72
2020/12/13 08:56:37;;;;;;;2.83;2.63;;;;;;;4.12;91.78;95117.84;6029852;23;20455;-72
2020/12/13 08:59:06;;;;;;;1.90;1.80;;;;;;;4.17;91.97;95115.56;6031245;23;20282;-72
2020/12/13 09:01:35;;;;;;;2.27;2.17;;;;;;;4.20;91.50;95121.28;6029005;23;20201;-72
2020/12/13 09:04:18;;;;;;;2.83;2.53;;;;;;;4.22;91.62;95124.56;6030763;23;20209;-73
2020/12/13 09:06:56;;;;;;;3.03;2.50;;;;;;;4.18;91.82;95133.69;6030703;23;20210;-72
2020/12/13 09:09:28;;;;;;;2.23;2.13;;;;;;;4.18;92.03;95138.91;6029088;23;20210;-72
2020/12/13 09:11:55;;;;;;;2.00;1.90;;;;;;;4.14;92.33;95142.81;6028289;23;20286;-72
2020/12/13 09:14:27;;;;;;;1.73;1.63;;;;;;;4.11;92.54;95148.34;6030857;23;20725;-72
2020/12/13 09:16:55;;;;;;;1.53;1.43;;;;;;;4.17;92.37;95146.91;6031133;23;20270;-72
2020/12/13 09:19:23;;;;;;;2.00;1.90;;;;;;;4.21;92.31;95149.06;6030944;23;20200;-72
2020/12/13 09:21:52;;;;;;;1.43;1.33;;;;;;;4.21;92.10;95158.69;6028277;23;20278;-72
2020/12/13 09:24:20;;;;;;;1.57;1.47;;;;;;;4.35;91.56;95157.25;6028424;23;20746;-73
2020/12/13 09:27:01;;;;;;;1.43;1.40;;;;;;;4.30;91.16;95157.75;6029895;23;20262;-73
2020/12/13 09:29:29;;;;;;;2.40;1.33;;;;;;;4.25;91.21;95158.19;6029693;23;20206;-72
2020/12/13 09:31:56;;;;;;;1.40;1.30;;;;;;;4.40;91.38;95157.63;6030270;23;20247;-72
2020/12/13 09:34:24;;;;;;;1.57;1.47;;;;;;;4.44;90.66;95169.38;6028943;23;20203;-72
2020/12/13 09:36:52;;;;;;;1.73;1.60;;;;;;;4.38;90.74;95162.16;6029734;23;20244;-72
2020/12/13 09:39:29;;;;;;;0.83;0.80;;;;;;;4.43;90.38;95165.13;6028664;23;20374;-72
2020/12/13 09:41:58;;;;;;;0.80;0.80;;;;;;;4.32;90.32;95166.22;6030245;23;20215;-72
2020/12/13 09:44:25;;;;;;;1.23;1.13;;;;;;;4.45;90.18;95165.78;6030411;23;20246;-72
2020/12/13 09:46:54;;;;;;;1.47;1.37;;;;;;;4.35;90.76;95170.31;6028114;23;20773;-72
2020/12/13 09:49:22;;;;;;;1.70;1.40;;;;;;;4.22;91.02;95168.97;6028130;23;20203;-72
2020/12/13 09:51:54;;;;;;;0.60;0.60;;;;;;;4.33;91.06;95175.69;6027870;23;20202;-72
2020/12/13 09:54:21;;;;;;;0.93;0.87;;;;;;;4.20;90.75;95168.28;6027111;23;20247;-72
2020/12/13 09:56:48;;;;;;;1.00;1.00;;;;;;;4.25;90.83;95171.25;6028773;23;20447;-72
2020/12/13 09:59:15;;;;;;;2.80;1.20;;;;;;;4.21;91.68;95174.34;6027107;23;20315;-71
2020/12/13 10:01:42;;;;;;;0.67;0.67;;;;;;;4.35;90.63;95173.75;6028720;23;20208;-72
2020/12/13 10:04:09;;;;;;;0.73;0.73;;;;;;;4.33;90.38;95183.53;6027404;23;20203;-72
2020/12/13 10:09:20;;;;;;;0.63;0.50;;;;;;;4.31;90.31;95175.03;6027941;23;20294;-72
2020/12/13 10:11:47;;;;;;;0.80;0.80;;;;;;;4.34;90.26;95173.91;6029873;23;20198;-72
2020/12/13 10:14:15;;;;;;;1.53;0.83;;;;;;;4.29;90.46;95177.78;6029981;23;20207;-72
2020/12/13 10:16:44;;;;;;;1.13;1.13;;;;;;;4.26;90.90;95177.28;6028350;23;20234;-72
2020/12/13 10:19:11;;;;;;;1.20;1.10;;;;;;;4.41;91.10;95180.13;6029952;23;20207;-71
2020/12/13 10:21:39;;;;;;;1.20;1.10;;;;;;;4.37;90.71;95184.03;6030232;23;20206;-72
2020/12/13 10:24:06;;;;;;;1.20;1.17;;;;;;;4.28;91.34;95168.31;6028383;23;20222;-71
2020/12/13 10:26:37;;;;;;;1.60;1.50;;;;;;;4.21;91.82;95169.13;6029124;23;20213;-72
2020/12/13 10:29:05;;;;;;;0.90;0.90;;;;;;;4.41;91.92;95174.91;6029930;23;20203;-72
2020/12/13 10:31:33;;;;;;;1.50;1.30;;;;;;;4.40;91.75;95179.31;6029713;23;20442;-72
2020/12/13 10:34:01;;;;;;;1.20;1.20;;;;;;;4.47;91.39;95174.25;6030141;23;20389;-72
2020/12/13 10:36:32;;;;;;;1.27;1.17;;;;;;;4.45;90.66;95176.22;6029708;23;20215;-72
2020/12/13 10:38:58;;;;;;;0.90;0.90;;;;;;;4.41;90.58;95174.91;6030397;23;20245;-71
2020/12/13 10:41:26;;;;;;;1.27;1.17;;;;;;;4.47;89.97;95174.25;6027571;23;20258;-72
2020/12/13 10:43:53;;;;;;;1.23;1.13;;;;;;;4.36;90.41;95175.38;6030434;23;20231;-72
2020/12/13 10:46:20;;;;;;;0.83;0.80;;;;;;;4.40;90.53;95163.66;6029659;23;20230;-71
2020/12/13 10:48:47;;;;;;;1.00;1.00;;;;;;;4.41;90.71;95170.50;6028258;23;20203;-72
2020/12/13 10:51:15;;;;;;;1.40;1.27;;;;;;;4.42;90.61;95168.72;6029601;23;20231;-72
2020/12/13 10:53:42;;;;;;;1.83;1.73;;;;;;;4.53;90.58;95168.41;6029783;23;20199;-72
2020/12/13 10:56:10;;;;;;;1.47;1.37;;;;;;;4.50;90.56;95166.94;6028561;23;20617;-72
2020/12/13 10:58:39;;;;;;;1.47;1.37;;;;;;;4.50;90.03;95173.97;6026475;23;20594;-71
2020/12/13 11:01:08;;;;;;;1.57;1.47;;;;;;;4.49;90.21;95170.53;6028977;23;20211;-72
2020/12/13 11:03:37;;;;;;;1.53;1.43;;;;;;;4.50;90.44;95179.19;6027700;23;20226;-71
2020/12/13 11:06:04;;;;;;;0.97;0.97;;;;;;;4.44;90.54;95171.97;6027264;23;20218;-72
2020/12/13 11:08:32;;;;;;;1.27;1.17;;;;;;;4.47;91.10;95172.47;6027878;23;20233;-72
2020/12/13 11:10:58;;;;;;;1.73;1.60;;;;;;;4.49;90.91;95185.41;6028622;23;20265;-71
2020/12/13 11:13:26;;;;;;;2.57;2.47;;;;;;;4.42;90.71;95177.38;6026788;23;20530;-71
2020/12/13 11:15:53;;;;;;;2.07;1.97;;;;;;;4.48;91.22;95179.34;6029441;23;20203;-71
2020/12/13 11:18:20;;;;;;;1.10;1.00;;;;;;;4.46;90.89;95178.69;6027136;23;20208;-72
2020/12/13 11:20:48;;;;;;;0.90;0.90;;;;;;;4.49;90.94;95186.22;6028970;23;20238;-71
2020/12/13 11:23:14;;;;;;;1.40;1.30;;;;;;;4.44;90.68;95182.44;6028741;23;20738;-72
2020/12/13 11:25:42;;;;;;;0.63;0.60;;;;;;;4.53;90.97;95184.09;6027774;23;20200;-72
2020/12/13 11:28:09;;;;;;;0.90;0.90;;;;;;;4.50;90.85;95184.41;6029445;23;20200;-72
2020/12/13 11:30:36;;;;;;;1.43;1.33;;;;;;;4.58;91.15;95181.84;6029219;23;20210;-72
2020/12/13 11:33:03;;;;;;;1.30;1.20;;;;;;;4.48;91.15;95186.34;6029502;23;20259;-71
2020/12/13 11:35:30;;;;;;;1.27;1.27;;;;;;;4.59;90.71;95182.66;6028536;23;20205;-73
2020/12/13 11:37:57;;;;;;;0.70;0.70;;;;;;;4.65;90.42;95189.84;6027856;23;20243;-72
2020/12/13 11:40:24;;;;;;;1.50;1.40;;;;;;;4.67;91.02;95188.72;6029096;23;20281;-73
2020/12/13 11:42:52;;;;;;;1.10;1.07;;;;;;;4.68;90.06;95187.75;6028640;23;20200;-72
2020/12/13 11:45:19;;;;;;;1.63;1.53;;;;;;;4.65;91.06;95182.81;6029747;23;20268;-72
2020/12/13 11:47:46;;;;;;;1.00;1.00;;;;;;;4.73;90.71;95189.88;6028513;23;20208;-72
2020/12/13 11:50:13;;;;;;;1.53;1.40;;;;;;;4.72;90.48;95196.06;6028560;23;20208;-71
2020/12/13 11:52:41;;;;;;;1.37;1.27;;;;;;;4.75;90.75;95188.72;6029123;23;20207;-72
2020/12/13 11:55:07;;;;;;;1.60;1.50;;;;;;;4.72;91.00;95183.81;6029265;23;20244;-71